Time;durP1;ratioP1;P1;durP2;ratioP2;P2;SDS_P1;SDS_P2;PMS_P1;PMS_P2;Temp;Humidity;BMP_temperature;BMP_pressure;BME280_temperature;BME280_humidity;BME280_pressure;Samples;Min_cycle;Max_cycle;Signal;HPM_P1;HPM_P2
2022/04/01 00:00:13;;;;;;;11.65;10.45;;;;;;;1.99;85.59;100147.06;5103057;28;20015;-67
2022/04/01 00:02:39;;;;;;;11.40;10.30;;;;;;;1.96;85.74;100135.84;5090735;28;20386;-67
2022/04/01 00:05:06;;;;;;;10.38;9.38;;;;;;;1.94;85.71;100140.28;5109423;28;20035;-67
2022/04/01 00:07:32;;;;;;;10.07;9.05;;;;;;;1.91;85.17;100148.28;5103624;28;20027;-67
2022/04/01 00:09:58;;;;;;;9.70;8.80;;;;;;;1.95;84.80;100148.09;5096169;28;20111;-67
2022/04/01 00:12:26;;;;;;;10.52;9.40;;;;;;;1.91;84.84;100148.28;5106026;27;20099;-67
2022/04/01 00:14:51;;;;;;;9.45;8.65;;;;;;;1.84;85.86;100152.91;5091310;28;20032;-67
2022/04/01 00:17:17;;;;;;;9.50;8.57;;;;;;;1.80;85.22;100153.94;5102441;28;20431;-67
2022/04/01 00:19:44;;;;;;;8.77;7.93;;;;;;;1.80;85.23;100159.19;5089894;28;20028;-67
2022/04/01 00:22:11;;;;;;;9.00;8.10;;;;;;;1.84;85.25;100159.91;5109954;28;20054;-67
2022/04/01 00:24:36;;;;;;;8.95;8.15;;;;;;;1.81;85.10;100172.22;5110053;28;20535;-67
2022/04/01 00:27:01;;;;;;;9.50;8.60;;;;;;;1.77;85.30;100167.16;5110164;28;20027;-67
2022/04/01 00:29:30;;;;;;;8.70;7.95;;;;;;;1.70;85.34;100170.91;5099756;28;20028;-67
2022/04/01 00:31:59;;;;;;;7.93;7.32;;;;;;;1.67;85.23;100163.16;5105506;28;20026;-67
2022/04/01 00:34:29;;;;;;;8.32;7.63;;;;;;;1.63;84.92;100167.69;5100947;28;20107;-67
2022/04/01 00:36:56;;;;;;;8.43;7.63;;;;;;;1.52;85.61;100172.47;5090483;28;20024;-67
2022/04/01 00:39:23;;;;;;;8.43;7.63;;;;;;;1.52;86.00;100172.47;5090209;28;20048;-67
2022/04/01 00:41:52;;;;;;;8.40;7.57;;;;;;;1.42;85.53;100177.19;5101746;28;20019;-67
2022/04/01 00:44:18;;;;;;;9.10;8.30;;;;;;;1.42;87.08;100179.81;5099495;28;20112;-67
2022/04/01 00:46:50;;;;;;;8.93;7.97;;;;;;;1.40;85.96;100186.00;5090555;28;20110;-67
2022/04/01 00:49:17;;;;;;;8.70;7.93;;;;;;;1.38;86.60;100182.59;5093166;28;20471;-67
2022/04/01 00:51:44;;;;;;;9.03;8.13;;;;;;;1.40;87.25;100188.63;5087810;28;20060;-67
2022/04/01 00:54:11;;;;;;;8.10;7.40;;;;;;;1.41;85.98;100188.56;5101768;28;20028;-67
2022/04/01 00:56:38;;;;;;;8.95;8.05;;;;;;;1.45;86.55;100199.81;5106006;28;20405;-67
2022/04/01 00:59:05;;;;;;;8.13;7.40;;;;;;;1.39;86.55;100189.56;5090540;28;20085;-67
2022/04/01 01:01:31;;;;;;;8.32;7.53;;;;;;;1.45;86.33;100191.94;5097356;28;20463;-68
2022/04/01 01:04:17;;;;;;;8.60;7.90;;;;;;;1.49;87.15;100191.75;5090627;28;20034;-67
2022/04/01 01:06:51;;;;;;;8.13;7.32;;;;;;;1.38;86.38;100196.53;5094162;28;20036;-67
2022/04/01 01:09:20;;;;;;;9.35;7.70;;;;;;;1.32;87.17;100194.13;5091265;28;20023;-67
2022/04/01 01:11:49;;;;;;;8.70;8.00;;;;;;;1.27;87.04;100173.34;5089193;28;20028;-67
2022/04/01 01:14:15;;;;;;;8.83;7.93;;;;;;;1.36;86.95;100182.66;5098459;28;20027;-67
2022/04/01 01:16:46;;;;;;;8.48;7.63;;;;;;;1.32;87.09;100181.91;5073490;28;20043;-67
2022/04/01 01:19:17;;;;;;;8.52;7.78;;;;;;;1.47;86.89;100197.97;5103700;28;20050;-67
2022/04/01 01:21:45;;;;;;;8.35;7.20;;;;;;;1.44;86.39;100195.47;5090825;28;20034;-67
2022/04/01 01:24:16;;;;;;;7.70;7.10;;;;;;;1.43;86.24;100186.75;5090208;28;20028;-67
2022/04/01 01:26:47;;;;;;;7.20;6.55;;;;;;;1.44;86.63;100192.84;5099248;28;20028;-67
2022/04/01 01:29:18;;;;;;;7.38;6.70;;;;;;;1.38;86.63;100188.66;5090324;28;20117;-67
2022/04/01 01:31:45;;;;;;;7.95;7.25;;;;;;;1.39;87.31;100192.16;5096318;28;20084;-67
2022/04/01 01:34:11;;;;;;;7.32;6.63;;;;;;;1.31;86.77;100195.06;5091230;28;20179;-67
2022/04/01 01:36:36;;;;;;;7.40;6.78;;;;;;;1.28;85.99;100195.16;5088984;28;20051;-68
2022/04/01 01:39:07;;;;;;;7.67;6.63;;;;;;;1.24;86.55;100197.03;5091374;28;20479;-67
2022/04/01 01:41:32;;;;;;;;;;;;;;;1.30;87.24;100202.06;5090035;28;20028;-67
2022/04/01 01:43:59;;;;;;;8.15;7.35;;;;;;;1.23;87.23;100197.94;5092454;28;19924;-67
2022/04/01 01:46:24;;;;;;;8.00;7.30;;;;;;;1.19;87.43;100198.97;5088825;28;20493;-67
2022/04/01 01:48:51;;;;;;;8.52;7.82;;;;;;;1.25;87.28;100197.88;5097627;28;20040;-67
2022/04/01 01:56:44;;;;;;;8.70;7.93;;;;;;;1.23;86.68;100200.56;5090156;28;20104;-67
2022/04/01 01:59:11;;;;;;;8.20;7.50;;;;;;;1.14;86.51;100199.09;5104121;28;20039;-67
2022/04/01 02:01:40;;;;;;;8.03;7.30;;;;;;;1.17;86.77;100208.63;5095491;28;20062;-67
2022/04/01 02:04:06;;;;;;;7.85;7.25;;;;;;;1.22;87.22;100216.34;5104400;28;20024;-67
2022/04/01 02:06:33;;;;;;;8.48;7.75;;;;;;;1.26;87.32;100210.91;5092907;28;20050;-67
2022/04/01 02:09:02;;;;;;;7.65;6.97;;;;;;;1.23;86.44;100204.94;5092369;28;20382;-67
2022/04/01 02:11:27;;;;;;;7.93;7.23;;;;;;;1.20;86.71;100212.91;5098587;28;20027;-67
2022/04/01 02:13:53;;;;;;;8.03;7.33;;;;;;;1.24;87.59;100217.16;5102689;28;20019;-67
2022/04/01 02:16:21;;;;;;;7.57;6.97;;;;;;;1.20;87.47;100216.38;5096160;28;20036;-67
2022/04/01 02:18:47;;;;;;;8.03;7.43;;;;;;;1.20;87.34;100215.53;5074897;28;20173;-67
2022/04/01 02:21:14;;;;;;;7.70;7.00;;;;;;;1.19;87.28;100224.28;5097685;28;20025;-67
2022/04/01 02:23:41;;;;;;;8.45;7.75;;;;;;;1.21;87.16;100220.72;5093397;28;20016;-67
2022/04/01 02:26:07;;;;;;;8.48;7.78;;;;;;;1.24;86.67;100231.09;5091767;28;20381;-67
2022/04/01 02:28:42;;;;;;;10.15;6.97;;;;;;;1.26;86.39;100231.88;5100972;28;20119;-67
2022/04/01 02:31:08;;;;;;;8.35;7.65;;;;;;;1.33;87.01;100229.91;5092953;28;20024;-67
2022/04/01 02:33:37;;;;;;;7.68;7.07;;;;;;;1.18;86.24;100212.97;5102093;28;20023;-67
2022/04/01 02:36:10;;;;;;;8.75;7.95;;;;;;;1.27;86.21;100241.47;5095156;28;20028;-67
2022/04/01 02:38:40;;;;;;;7.80;7.20;;;;;;;1.30;86.47;100243.97;5083538;28;20367;-67
2022/04/01 02:41:07;;;;;;;8.32;7.63;;;;;;;1.29;86.70;100249.25;5092904;28;20016;-67
2022/04/01 02:43:34;;;;;;;8.88;8.05;;;;;;;1.34;86.94;100240.31;5102048;28;20034;-67
2022/04/01 02:45:59;;;;;;;8.10;7.50;;;;;;;1.27;87.08;100248.47;5103566;28;20028;-67
2022/04/01 02:48:25;;;;;;;8.95;8.00;;;;;;;1.23;86.98;100254.69;5105301;28;20033;-67
2022/04/01 02:50:51;;;;;;;8.07;7.40;;;;;;;1.20;87.09;100254.81;5092070;28;20048;-67
2022/04/01 02:53:17;;;;;;;8.90;8.00;;;;;;;1.19;87.17;100253.97;5092218;28;20144;-67
2022/04/01 02:55:45;;;;;;;8.23;7.53;;;;;;;1.23;86.69;100257.31;5097779;28;20031;-67
2022/04/01 02:58:13;;;;;;;8.10;7.50;;;;;;;1.27;86.51;100269.44;5103029;28;20055;-67
2022/04/01 03:00:39;;;;;;;8.32;7.72;;;;;;;1.18;87.36;100260.13;5098024;28;20123;-67
2022/04/01 03:03:08;;;;;;;8.97;8.17;;;;;;;1.17;87.39;100270.63;5112118;28;20110;-67
2022/04/01 03:05:35;;;;;;;8.27;7.57;;;;;;;1.13;87.48;100267.25;5094804;28;20432;-67
2022/04/01 03:08:04;;;;;;;9.30;8.40;;;;;;;1.10;86.98;100273.44;5099082;28;20103;-67
2022/04/01 03:10:31;;;;;;;8.43;7.72;;;;;;;1.14;87.51;100269.81;5103873;28;20046;-67
2022/04/01 03:12:57;;;;;;;8.32;7.63;;;;;;;1.12;87.53;100276.88;5091178;28;20031;-67
2022/04/01 03:15:25;;;;;;;9.10;8.40;;;;;;;0.99;86.94;100259.00;5100218;28;20031;-67
2022/04/01 03:17:54;;;;;;;9.82;8.93;;;;;;;1.01;87.01;100273.75;5098776;28;20111;-67
2022/04/01 03:20:19;;;;;;;8.93;8.23;;;;;;;1.08;87.31;100279.66;5063255;28;20029;-67
2022/04/01 03:22:45;;;;;;;9.10;8.23;;;;;;;1.04;87.14;100283.28;5093849;28;20116;-67
2022/04/01 03:25:15;;;;;;;10.07;9.15;;;;;;;0.99;86.81;100279.94;5079064;28;20516;-67
2022/04/01 03:27:41;;;;;;;10.68;9.77;;;;;;;0.93;86.67;100282.78;5092146;28;20047;-67
2022/04/01 03:30:11;;;;;;;10.23;9.38;;;;;;;0.95;86.65;100294.06;5094208;28;20028;-67
2022/04/01 03:32:40;;;;;;;11.05;10.05;;;;;;;0.98;87.57;100299.19;5106820;28;20024;-67
2022/04/01 03:35:09;;;;;;;10.30;9.50;;;;;;;1.01;87.22;100291.25;5094719;28;20052;-67
2022/04/01 03:37:34;;;;;;;11.27;10.17;;;;;;;0.98;87.78;100300.03;5103123;28;20028;-67
2022/04/01 03:40:01;;;;;;;11.82;10.77;;;;;;;0.99;87.53;100299.13;5092081;28;20020;-67
2022/04/01 03:42:30;;;;;;;11.82;10.73;;;;;;;0.97;87.05;100305.31;5096692;28;20024;-67
2022/04/01 03:44:58;;;;;;;10.95;10.05;;;;;;;0.92;87.18;100296.78;5100543;28;20047;-68
2022/04/01 03:47:29;;;;;;;11.47;10.47;;;;;;;1.04;87.59;100304.22;5092150;28;20739;-68
2022/04/01 03:50:04;;;;;;;11.18;10.27;;;;;;;0.94;87.38;100302.81;5096559;28;20444;-67
2022/04/01 03:52:32;;;;;;;10.90;9.90;;;;;;;0.88;87.54;100309.97;5091074;28;20482;-67
2022/04/01 03:55:02;;;;;;;10.70;9.80;;;;;;;0.90;87.12;100312.53;5091422;28;20035;-67
2022/04/01 03:57:37;;;;;;;10.82;9.73;;;;;;;0.95;88.57;100309.75;5098468;28;20024;-67
2022/04/01 04:00:08;;;;;;;11.47;10.37;;;;;;;0.88;88.13;100316.94;5097882;28;20035;-67
2022/04/01 04:02:34;;;;;;;11.23;10.32;;;;;;;0.92;88.25;100321.19;5097370;28;20047;-67
2022/04/01 04:05:06;;;;;;;10.97;10.07;;;;;;;0.93;88.12;100322.03;5096662;28;20077;-67
2022/04/01 04:07:32;;;;;;;11.00;10.00;;;;;;;0.98;88.02;100325.38;5089167;28;20055;-67
2022/04/01 04:10:02;;;;;;;11.25;10.25;;;;;;;0.99;88.16;100334.94;5098135;28;20031;-67
2022/04/01 04:12:30;;;;;;;10.98;9.88;;;;;;;0.89;87.19;100334.38;5109685;28;20543;-67
2022/04/01 04:14:59;;;;;;;10.27;9.43;;;;;;;0.78;87.39;100333.84;5094005;28;20035;-67
2022/04/01 04:17:36;;;;;;;11.40;10.30;;;;;;;0.81;88.56;100344.22;5073244;28;20020;-67
2022/04/01 04:20:20;;;;;;;10.85;9.95;;;;;;;0.75;89.20;100345.28;5096850;28;20034;-67
2022/04/01 04:23:07;;;;;;;10.20;9.30;;;;;;;0.75;88.41;100353.13;5108069;28;20024;-67
2022/04/01 04:25:37;;;;;;;10.10;9.20;;;;;;;0.76;88.46;100352.19;5096208;28;20098;-67
2022/04/01 04:28:12;;;;;;;10.57;9.77;;;;;;;0.77;88.65;100364.41;5091316;28;20028;-67
2022/04/01 04:30:48;;;;;;;10.95;9.95;;;;;;;0.74;88.46;100351.41;5097121;28;20035;-67
2022/04/01 04:33:16;;;;;;;10.70;9.70;;;;;;;0.76;88.40;100369.69;5111574;28;20046;-67
2022/04/01 04:35:44;;;;;;;10.55;9.63;;;;;;;0.72;88.83;100363.69;5110955;28;20048;-67
2022/04/01 04:38:11;;;;;;;10.98;9.98;;;;;;;0.82;88.46;100369.47;5092910;28;20035;-67
2022/04/01 04:40:36;;;;;;;10.37;9.47;;;;;;;0.88;88.69;100377.16;5092244;28;20023;-67
2022/04/01 04:43:03;;;;;;;10.50;9.47;;;;;;;0.87;88.31;100385.91;5075317;28;20043;-67
2022/04/01 04:45:28;;;;;;;11.40;10.33;;;;;;;0.84;88.09;100399.09;5091128;28;20035;-67
2022/04/01 04:47:57;;;;;;;10.48;9.63;;;;;;;0.81;87.84;100383.50;5091167;28;20044;-68
2022/04/01 04:50:23;;;;;;;10.75;9.85;;;;;;;0.76;88.00;100388.84;5094941;28;20035;-67
2022/04/01 04:52:53;;;;;;;11.07;10.07;;;;;;;0.72;88.18;100392.47;5072511;28;20040;-67
2022/04/01 04:55:22;;;;;;;10.88;9.98;;;;;;;0.73;87.77;100411.66;5108564;28;20483;-67
2022/04/01 04:57:50;;;;;;;10.93;9.90;;;;;;;0.79;89.14;100409.69;5090088;28;20028;-67
2022/04/01 05:00:19;;;;;;;10.73;9.63;;;;;;;0.72;87.74;100416.03;5088658;28;20031;-67
2022/04/01 05:03:40;;;;;;;10.60;9.60;;;;;;;0.80;88.08;100416.66;5098080;28;20034;-67
2022/04/01 05:06:10;;;;;;;11.77;10.68;;;;;;;0.87;87.83;100430.41;5074602;28;20051;-67
2022/04/01 05:08:58;;;;;;;11.10;10.10;;;;;;;0.87;87.92;100433.03;5103303;28;20031;-67
2022/04/01 05:11:42;;;;;;;10.88;9.80;;;;;;;0.79;86.92;100438.47;5102298;28;20382;-67
2022/04/01 05:14:31;;;;;;;11.13;10.03;;;;;;;0.79;86.34;100441.09;5089157;28;20036;-67
2022/04/01 05:17:31;;;;;;;10.60;9.73;;;;;;;0.84;86.57;100444.44;5095314;28;20035;-67
2022/04/01 05:20:00;;;;;;;9.80;8.90;;;;;;;0.79;86.56;100450.72;5099939;28;20027;-67
2022/04/01 05:22:54;;;;;;;10.93;9.83;;;;;;;0.70;86.79;100449.22;5089614;28;20020;-67
2022/04/01 05:25:25;;;;;;;10.10;9.20;;;;;;;0.66;85.54;100448.47;5091347;28;20293;-67
2022/04/01 05:27:53;;;;;;;10.47;9.57;;;;;;;0.71;86.75;100453.56;5090290;28;20034;-68
2022/04/01 05:30:20;;;;;;;11.15;10.07;;;;;;;0.72;85.67;100450.06;5103403;28;20153;-67
2022/04/01 05:33:18;;;;;;;10.37;9.47;;;;;;;0.71;86.49;100450.97;5090734;28;20044;-67
2022/04/01 05:35:51;;;;;;;10.97;9.97;;;;;;;0.67;85.92;100455.41;5092607;28;20040;-67
2022/04/01 05:38:19;;;;;;;11.23;10.27;;;;;;;0.71;85.81;100468.41;5100726;28;20035;-67
2022/04/01 05:40:45;;;;;;;11.27;10.27;;;;;;;0.68;86.35;100464.13;5103614;28;20019;-67
2022/04/01 05:43:14;;;;;;;10.80;9.80;;;;;;;0.67;85.07;100481.56;5097126;28;20280;-68
2022/04/01 05:45:42;;;;;;;10.80;9.90;;;;;;;0.77;86.21;100481.34;5093523;28;20032;-67
2022/04/01 05:48:09;;;;;;;12.25;11.20;;;;;;;0.79;85.40;100490.84;5091835;28;20088;-67
2022/04/01 05:50:36;;;;;;;11.73;10.33;;;;;;;0.70;84.23;100474.53;5104240;28;20055;-67
2022/04/01 05:53:02;;;;;;;11.27;10.27;;;;;;;0.72;85.07;100491.06;5092981;28;20034;-67
2022/04/01 05:55:30;;;;;;;11.50;10.37;;;;;;;0.74;85.04;100499.75;5098323;28;20050;-67
2022/04/01 05:57:56;;;;;;;11.50;10.40;;;;;;;0.74;85.48;100504.97;5099817;28;20027;-67
2022/04/01 06:00:22;;;;;;;11.27;10.27;;;;;;;0.71;85.98;100511.16;5099758;28;20038;-67
2022/04/01 06:03:16;;;;;;;11.13;10.00;;;;;;;0.65;85.07;100500.84;5094538;28;20053;-68
2022/04/01 06:05:53;;;;;;;12.00;11.00;;;;;;;0.76;85.28;100517.09;5097970;28;20394;-67
2022/04/01 06:08:24;;;;;;;10.80;9.90;;;;;;;0.73;85.61;100524.19;5106148;28;20386;-67
2022/04/01 06:11:05;;;;;;;11.23;10.27;;;;;;;0.66;85.02;100534.81;5112532;28;20039;-67
2022/04/01 06:13:43;;;;;;;11.23;10.03;;;;;;;0.68;83.95;100537.41;5095791;28;20055;-67
2022/04/01 06:16:11;;;;;;;10.97;9.97;;;;;;;0.65;84.56;100538.34;5094969;28;20109;-67
2022/04/01 06:18:55;;;;;;;11.50;9.87;;;;;;;0.67;85.24;100548.75;5092245;28;20069;-67
2022/04/01 06:21:26;;;;;;;9.97;9.10;;;;;;;0.63;84.63;100550.59;5093672;28;20016;-67
2022/04/01 06:24:19;;;;;;;10.10;9.30;;;;;;;0.62;84.91;100555.91;5092938;28;20036;-67
2022/04/01 06:26:54;;;;;;;11.10;10.10;;;;;;;0.58;85.17;100555.09;5090584;28;20040;-67
2022/04/01 06:30:01;;;;;;;11.87;10.77;;;;;;;0.58;84.51;100562.94;5092999;28;20035;-67
2022/04/01 06:32:39;;;;;;;10.20;9.20;;;;;;;0.63;84.93;100568.06;5073450;28;20039;-67
2022/04/01 06:35:18;;;;;;;9.43;8.53;;;;;;;0.68;84.33;100572.28;5113675;28;20356;-67
2022/04/01 06:37:54;;;;;;;9.30;8.43;;;;;;;0.64;84.28;100577.63;5099789;28;20024;-67
2022/04/01 06:40:23;;;;;;;10.30;9.20;;;;;;;0.72;84.09;100586.13;5113747;28;20054;-67
2022/04/01 06:42:51;;;;;;;10.20;9.27;;;;;;;0.72;84.84;100582.66;5104819;28;20441;-67
2022/04/01 06:45:17;;;;;;;10.23;9.23;;;;;;;0.73;83.90;100597.47;5101186;28;20035;-67
2022/04/01 06:47:44;;;;;;;10.43;9.33;;;;;;;0.73;83.93;100600.06;5074499;28;20046;-67
2022/04/01 06:50:09;;;;;;;9.37;8.47;;;;;;;0.71;83.40;100605.38;5092209;28;20044;-67
2022/04/01 06:52:35;;;;;;;12.17;9.63;;;;;;;0.75;84.05;100604.38;5090090;28;20105;-67
2022/04/01 06:55:01;;;;;;;9.77;8.83;;;;;;;0.78;83.20;100606.06;5101127;28;20085;-67
2022/04/01 06:57:26;;;;;;;9.60;8.70;;;;;;;0.79;83.65;100608.63;5089961;28;20035;-67
2022/04/01 06:59:54;;;;;;;9.10;8.30;;;;;;;0.81;82.67;100616.44;5093324;28;20363;-67
2022/04/01 07:02:23;;;;;;;9.57;8.57;;;;;;;0.72;82.16;100621.94;5092726;28;20032;-67
2022/04/01 07:04:48;;;;;;;9.07;8.13;;;;;;;0.70;82.27;100623.72;5108798;28;20122;-67
2022/04/01 07:07:14;;;;;;;9.30;7.97;;;;;;;0.66;83.26;100618.56;5074942;28;20136;-67
2022/04/01 07:09:39;;;;;;;8.60;7.90;;;;;;;0.65;82.98;100623.84;5094404;28;20074;-67
2022/04/01 07:12:05;;;;;;;9.63;8.47;;;;;;;0.70;82.89;100629.81;5091800;28;20439;-67
2022/04/01 07:14:31;;;;;;;8.52;7.57;;;;;;;0.67;82.23;100632.50;5071499;28;20062;-67
2022/04/01 07:16:58;;;;;;;8.80;8.00;;;;;;;0.68;83.11;100636.84;5097955;28;20039;-67
2022/04/01 07:19:24;;;;;;;10.30;9.20;;;;;;;0.73;83.40;100637.56;5100759;28;20028;-67
2022/04/01 07:21:50;;;;;;;9.68;8.13;;;;;;;0.67;82.19;100637.75;5103601;28;20019;-67
2022/04/01 07:24:15;;;;;;;9.23;8.17;;;;;;;0.69;82.82;100646.41;5106367;28;20126;-67
2022/04/01 07:26:41;;;;;;;11.03;8.27;;;;;;;0.68;82.47;100640.31;5100984;28;20457;-67
2022/04/01 07:29:07;;;;;;;9.20;8.37;;;;;;;0.75;83.28;100651.50;5090472;28;20395;-67
2022/04/01 07:34:37;;;;;;;11.43;7.83;;;;;;;0.80;81.92;100661.84;5092160;28;20047;-67
2022/04/01 07:37:04;;;;;;;18.33;8.63;;;;;;;0.72;83.04;100667.28;5095539;28;20126;-66
2022/04/01 07:39:30;;;;;;;12.23;8.03;;;;;;;0.74;83.17;100665.47;5090402;28;20042;-66
2022/04/01 07:41:55;;;;;;;11.53;8.20;;;;;;;0.78;82.72;100679.34;5088982;28;20118;-67
2022/04/01 07:44:22;;;;;;;9.27;8.37;;;;;;;0.80;82.80;100680.19;5089124;28;20050;-66
2022/04/01 07:46:50;;;;;;;11.50;8.27;;;;;;;0.87;82.06;100677.34;5073192;28;20063;-66
2022/04/01 07:49:17;;;;;;;9.00;8.10;;;;;;;0.84;83.10;100684.44;5090954;28;20110;-66
2022/04/01 07:51:43;;;;;;;8.83;8.03;;;;;;;0.87;82.54;100682.56;5089996;28;20056;-66
2022/04/01 07:54:10;;;;;;;11.37;7.83;;;;;;;0.92;82.16;100687.72;5090511;28;20032;-66
2022/04/01 07:56:36;;;;;;;8.80;7.97;;;;;;;0.87;81.66;100693.06;5095363;28;20051;-66
2022/04/01 07:59:04;;;;;;;8.83;7.73;;;;;;;0.91;81.86;100696.44;5091510;28;21044;-66
2022/04/01 08:01:30;;;;;;;9.83;7.50;;;;;;;0.84;81.93;100687.91;5100712;28;20031;-66
2022/04/01 08:03:57;;;;;;;8.70;7.03;;;;;;;0.89;82.37;100696.50;5090289;28;20040;-67
2022/04/01 08:06:26;;;;;;;8.83;7.30;;;;;;;0.87;81.27;100700.91;5095134;28;20023;-66
2022/04/01 08:08:55;;;;;;;10.68;7.32;;;;;;;0.92;81.21;100699.94;5093645;28;20038;-67
2022/04/01 08:11:24;;;;;;;8.75;7.90;;;;;;;0.96;81.84;100706.81;5096219;28;20040;-66
2022/04/01 08:13:52;;;;;;;7.88;6.95;;;;;;;0.99;81.00;100704.13;5100003;28;20016;-66
2022/04/01 08:16:18;;;;;;;8.13;7.43;;;;;;;0.92;82.07;100700.81;5089503;28;20039;-66
2022/04/01 08:18:44;;;;;;;8.60;6.80;;;;;;;0.78;82.13;100703.75;5096584;28;20390;-67
2022/04/01 08:21:12;;;;;;;12.47;8.00;;;;;;;0.82;81.26;100715.84;5089473;28;20348;-66
2022/04/01 08:23:38;;;;;;;8.47;7.17;;;;;;;0.87;80.89;100721.84;5088141;28;20028;-66
2022/04/01 08:26:05;;;;;;;8.30;7.47;;;;;;;0.90;82.20;100729.63;5088901;28;20039;-66
2022/04/01 08:28:31;;;;;;;9.10;7.82;;;;;;;0.94;81.98;100721.69;5091298;28;20016;-66
2022/04/01 08:30:57;;;;;;;8.27;7.50;;;;;;;0.95;82.57;100739.13;5071892;28;20119;-67
2022/04/01 08:33:23;;;;;;;10.97;7.90;;;;;;;0.92;81.68;100740.06;5089761;28;20584;-68
2022/04/01 08:35:49;;;;;;;10.63;7.93;;;;;;;0.98;nan;100741.69;5095941;28;20555;-69
2022/04/01 08:38:17;;;;;;;8.87;7.57;;;;;;;0.95;81.71;100750.47;5092234;28;20041;-69
2022/04/01 08:40:43;;;;;;;11.32;8.07;;;;;;;1.00;81.87;100759.06;5096205;28;20028;-69
2022/04/01 08:43:09;;;;;;;8.05;7.25;;;;;;;0.97;80.88;100766.13;5088086;28;20024;-69
2022/04/01 08:45:37;;;;;;;8.10;7.33;;;;;;;0.89;81.62;100767.19;5099975;28;20024;-70
2022/04/01 08:48:10;;;;;;;7.82;7.10;;;;;;;0.89;80.82;100761.94;5098521;28;20374;-69
2022/04/01 08:50:36;;;;;;;7.83;6.77;;;;;;;0.78;80.96;100766.59;5088751;28;20040;-69
2022/04/01 08:53:02;;;;;;;8.17;7.37;;;;;;;0.87;79.51;100783.81;5103051;28;20097;-69
2022/04/01 08:55:27;;;;;;;8.43;6.53;;;;;;;0.90;79.87;100779.38;5106156;28;20061;-69
2022/04/01 08:57:53;;;;;;;9.63;6.90;;;;;;;0.89;79.82;100788.13;5099920;28;20032;-69
2022/04/01 09:00:18;;;;;;;11.60;7.53;;;;;;;0.99;80.23;100786.13;5086108;28;20082;-69
2022/04/01 09:02:52;;;;;;;10.40;7.73;;;;;;;1.05;80.35;100787.75;5090150;28;20496;-69
2022/04/01 09:05:20;;;;;;;8.87;6.57;;;;;;;1.01;78.18;100791.34;5087094;28;20032;-69
2022/04/01 09:07:47;;;;;;;8.03;6.93;;;;;;;1.01;79.37;100800.06;5091360;28;20032;-69
2022/04/01 09:10:13;;;;;;;8.17;7.20;;;;;;;1.08;79.66;100800.75;5094326;28;20506;-69
2022/04/01 09:12:49;;;;;;;8.43;7.17;;;;;;;1.09;78.58;100795.50;5096430;28;20118;-69
2022/04/01 09:15:15;;;;;;;7.30;6.60;;;;;;;1.07;79.24;100799.06;5095816;28;20016;-70
2022/04/01 09:17:45;;;;;;;7.83;7.07;;;;;;;1.04;79.86;100807.84;5100884;28;20084;-70
2022/04/01 09:20:11;;;;;;;8.10;7.32;;;;;;;1.12;79.39;100808.53;5104767;28;20023;-69
2022/04/01 09:22:38;;;;;;;9.80;6.53;;;;;;;1.20;79.70;100808.31;5093053;28;20391;-70
2022/04/01 09:25:08;;;;;;;8.18;7.40;;;;;;;1.26;79.33;100813.41;5094415;28;20024;-70
2022/04/01 09:27:53;;;;;;;7.47;6.70;;;;;;;1.24;78.31;100819.59;5093578;28;20028;-70
2022/04/01 09:30:26;;;;;;;7.40;6.77;;;;;;;1.30;79.59;100822.06;5094608;28;20039;-70
2022/04/01 09:32:57;;;;;;;7.45;6.75;;;;;;;1.32;79.98;100822.84;5104876;28;20047;-70
2022/04/01 09:35:25;;;;;;;7.95;6.45;;;;;;;1.34;78.63;100824.53;5093222;28;20028;-70
2022/04/01 09:37:54;;;;;;;6.93;6.32;;;;;;;1.28;78.51;100829.09;5094367;28;20035;-70
2022/04/01 09:40:22;;;;;;;6.70;6.10;;;;;;;1.38;78.75;100829.72;5094811;28;20028;-69
2022/04/01 09:42:57;;;;;;;10.68;6.35;;;;;;;1.45;79.56;100831.28;5094308;28;20028;-70
2022/04/01 09:45:25;;;;;;;9.50;6.07;;;;;;;1.46;78.21;100826.00;5094508;28;20024;-70
2022/04/01 09:48:01;;;;;;;8.38;6.38;;;;;;;1.52;78.94;100825.81;5094436;28;20107;-69
2022/04/01 09:50:34;;;;;;;7.88;6.32;;;;;;;1.49;78.93;100839.00;5107597;28;20046;-68
2022/04/01 09:53:08;;;;;;;8.00;6.50;;;;;;;1.53;78.58;100826.69;5102354;28;20070;-69
2022/04/01 09:55:35;;;;;;;6.88;6.10;;;;;;;1.58;78.73;100833.53;5093025;28;20076;-70
2022/04/01 09:58:04;;;;;;;6.30;5.80;;;;;;;1.54;78.88;100836.28;5098456;28;20055;-70
2022/04/01 10:00:30;;;;;;;7.20;6.50;;;;;;;1.52;77.35;100822.34;5107056;28;20111;-69
2022/04/01 10:02:56;;;;;;;8.07;6.30;;;;;;;1.56;77.77;100837.97;5105222;28;20438;-69
2022/04/01 10:05:21;;;;;;;6.68;5.90;;;;;;;1.52;78.48;100835.47;5079054;28;20027;-69
2022/04/01 10:07:47;;;;;;;6.75;6.15;;;;;;;1.53;78.81;100829.31;5089804;28;20174;-69
2022/04/01 10:10:13;;;;;;;8.75;5.75;;;;;;;1.41;77.98;100825.25;5101825;28;20104;-70
2022/04/01 10:12:47;;;;;;;7.45;5.22;;;;;;;1.42;78.58;100844.47;5102685;28;20032;-70
2022/04/01 10:15:13;;;;;;;6.28;5.68;;;;;;;1.45;78.38;100837.38;5094028;28;20395;-69
2022/04/01 10:17:41;;;;;;;7.07;6.20;;;;;;;1.41;78.52;100829.63;5094167;28;20019;-70
2022/04/01 10:20:13;;;;;;;6.60;6.00;;;;;;;1.48;78.82;100844.31;5099670;28;20109;-69
2022/04/01 10:22:40;;;;;;;6.88;5.47;;;;;;;1.51;79.52;100847.72;5092725;28;20359;-69
2022/04/01 10:25:19;;;;;;;7.75;6.40;;;;;;;1.55;78.59;100848.47;5093238;28;20619;-69
2022/04/01 10:27:50;;;;;;;6.22;5.68;;;;;;;1.54;79.02;100847.63;5101292;28;20509;-69
2022/04/01 10:30:19;;;;;;;10.50;5.57;;;;;;;1.50;79.42;100848.63;5091772;28;20110;-69
2022/04/01 10:32:47;;;;;;;6.05;5.22;;;;;;;1.58;78.39;100851.03;5091386;28;20184;-69
2022/04/01 10:35:28;;;;;;;5.97;5.55;;;;;;;1.57;79.01;100850.16;5092680;28;20032;-69
2022/04/01 10:38:06;;;;;;;6.32;5.82;;;;;;;1.69;78.56;100845.50;5092446;28;20032;-69
2022/04/01 10:40:43;;;;;;;5.60;5.10;;;;;;;1.75;78.52;100853.22;5092711;28;20020;-69
2022/04/01 10:43:44;;;;;;;6.65;5.95;;;;;;;1.85;78.24;100849.44;5091474;28;20024;-69
2022/04/01 10:46:13;;;;;;;6.03;5.47;;;;;;;1.75;76.84;100855.84;5068232;28;20482;-69
2022/04/01 10:51:36;;;;;;;8.30;6.25;;;;;;;1.76;77.10;100862.78;5091515;28;20044;-69
2022/04/01 10:54:13;;;;;;;6.57;6.03;;;;;;;1.76;77.67;100861.00;5092222;28;20024;-69
2022/04/01 10:56:43;;;;;;;6.50;5.90;;;;;;;1.73;78.68;100845.38;5102986;28;20057;-69
2022/04/01 10:59:20;;;;;;;6.47;5.88;;;;;;;1.79;77.13;100866.22;5092379;28;20016;-69
2022/04/01 11:01:51;;;;;;;6.93;6.22;;;;;;;1.89;78.33;100869.44;5092207;28;20082;-69
2022/04/01 11:04:16;;;;;;;7.10;6.50;;;;;;;1.93;77.72;100868.44;5103481;28;20039;-69
2022/04/01 11:07:02;;;;;;;7.85;6.57;;;;;;;1.95;78.06;100874.50;5112768;28;20035;-69
2022/04/01 11:09:39;;;;;;;7.60;6.68;;;;;;;1.97;76.28;100875.34;5099447;28;20111;-69
2022/04/01 11:15:10;;;;;;;9.82;8.55;;;;;;;2.00;77.34;100877.88;5093122;28;20047;-69
2022/04/01 11:17:38;;;;;;;7.38;6.68;;;;;;;2.01;76.50;100879.59;5094855;28;20156;-71
2022/04/01 11:20:12;;;;;;;9.38;8.02;;;;;;;1.92;74.55;100868.50;5090578;28;20051;-69
2022/04/01 11:23:04;;;;;;;8.02;7.20;;;;;;;1.93;74.52;100886.78;5090263;28;20020;-69
2022/04/01 11:25:33;;;;;;;7.32;6.65;;;;;;;1.94;74.82;100891.16;5093045;28;20115;-69
2022/04/01 11:28:10;;;;;;;8.25;7.55;;;;;;;1.93;74.66;100899.91;5092313;28;20111;-69
2022/04/01 11:30:42;;;;;;;10.30;7.65;;;;;;;1.88;75.09;100893.06;5089372;28;20031;-69
2022/04/01 11:33:15;;;;;;;10.60;7.57;;;;;;;1.90;75.80;100897.38;5093520;28;20463;-69
2022/04/01 11:35:44;;;;;;;9.68;6.38;;;;;;;1.94;74.04;100898.13;5090207;28;20378;-69
2022/04/01 11:38:15;;;;;;;8.35;7.43;;;;;;;1.95;75.64;100889.41;5090489;28;20024;-69
2022/04/01 11:40:42;;;;;;;9.82;8.30;;;;;;;2.04;77.03;100902.25;5090335;28;20023;-69
2022/04/01 11:43:13;;;;;;;9.82;6.57;;;;;;;2.10;75.63;100896.00;5091773;28;20119;-69
2022/04/01 11:45:44;;;;;;;8.07;7.28;;;;;;;2.11;77.19;100893.31;5091702;28;20456;-69
2022/04/01 11:48:28;;;;;;;8.02;7.22;;;;;;;2.11;74.74;100893.31;5093687;28;20445;-69
2022/04/01 11:50:57;;;;;;;9.35;7.90;;;;;;;2.10;75.92;100893.38;5089309;28;20083;-69
2022/04/01 11:53:26;;;;;;;9.23;7.23;;;;;;;2.12;76.60;100894.16;5091684;28;20479;-69
2022/04/01 11:55:53;;;;;;;8.68;7.55;;;;;;;2.15;76.70;100894.09;5091738;28;20107;-69